createdAt,value
2023-01-28T00:03:52.119Z,1.58
2023-01-28T00:08:55.936Z,1.98
2023-01-28T00:14:00.406Z,5.72
2023-01-28T00:19:01.897Z,3.22
2023-01-28T00:24:03.613Z,3.42
2023-01-28T00:29:05.373Z,1.92
2023-01-28T00:34:07.052Z,2.53
2023-01-28T00:39:13.739Z,4.28
2023-01-28T00:44:15.204Z,4.03
2023-01-28T00:49:16.806Z,2.42
2023-01-28T00:54:20.807Z,3.75
2023-01-28T00:59:22.257Z,2.03
2023-01-28T01:04:30.203Z,1.80
2023-01-28T01:09:31.761Z,2.67
2023-01-28T01:14:34.296Z,2.38
2023-01-28T01:19:37.264Z,3.17
2023-01-28T01:24:38.746Z,2.55
2023-01-28T01:29:40.444Z,3.47
2023-01-28T01:34:42.069Z,3.97
2023-01-28T01:39:43.584Z,2.92
2023-01-28T01:45:01.741Z,3.63
2023-01-28T01:50:12.937Z,3.00
2023-01-28T01:55:21.139Z,3.72
2023-01-28T02:00:22.651Z,3.40
2023-01-28T02:05:24.663Z,3.55
2023-01-28T02:10:26.340Z,3.25
2023-01-28T02:15:29.758Z,3.65
2023-01-28T02:20:59.222Z,3.92
2023-01-28T02:26:23.083Z,2.72
2023-01-28T02:31:33.790Z,5.35
2023-01-28T02:36:48.817Z,3.67
2023-01-28T02:41:56.603Z,4.03
2023-01-28T02:52:49.144Z,2.35
2023-01-28T02:58:18.180Z,2.95
2023-01-28T03:03:31.630Z,4.53
2023-01-28T03:09:14.186Z,3.42
2023-01-28T03:14:42.624Z,5.60
2023-01-28T03:20:08.800Z,2.58
2023-01-28T03:25:30.878Z,5.25
2023-01-28T03:31:22.981Z,3.15
2023-01-28T03:36:49.153Z,5.25
2023-01-28T03:42:11.057Z,6.18
2023-01-28T03:47:16.264Z,2.17
2023-01-28T03:52:21.595Z,1.92
2023-01-28T03:57:25.641Z,3.38
2023-01-28T04:02:27.270Z,3.22
2023-01-28T04:07:28.839Z,3.22
2023-01-28T04:12:30.347Z,2.53
2023-01-28T04:17:31.806Z,2.25
2023-01-28T04:22:33.279Z,1.70
2023-01-28T04:27:34.866Z,3.80
2023-01-28T04:32:36.313Z,2.35
2023-01-28T04:37:37.963Z,1.25
2023-01-28T04:42:39.434Z,2.10
2023-01-28T04:47:42.362Z,4.35
2023-01-28T04:52:44.157Z,2.17
2023-01-28T04:57:47.798Z,2.50
2023-01-28T05:02:49.369Z,2.03
2023-01-28T05:07:55.226Z,2.72
2023-01-28T05:12:56.697Z,3.63
2023-01-28T05:18:07.160Z,3.47
2023-01-28T05:23:08.835Z,1.83
2023-01-28T05:28:10.259Z,2.55
2023-01-28T05:33:11.781Z,1.30
2023-01-28T05:38:15.294Z,1.63
2023-01-28T05:43:17.049Z,2.63
2023-01-28T05:48:18.605Z,2.97
2023-01-28T05:53:20.511Z,2.10
2023-01-28T05:58:22.212Z,1.67
2023-01-28T06:03:23.741Z,1.67
2023-01-28T06:08:25.213Z,3.40
2023-01-28T06:13:26.684Z,2.13
2023-01-28T06:18:28.116Z,4.25
2023-01-28T06:23:29.791Z,2.13
2023-01-28T06:28:32.000Z,3.33
2023-01-28T06:33:33.575Z,2.38
2023-01-28T06:38:35.321Z,4.00
2023-01-28T06:43:36.747Z,3.72
2023-01-28T06:48:38.314Z,1.60
2023-01-28T06:53:39.870Z,3.40
2023-01-28T06:58:41.523Z,1.73
2023-01-28T07:03:43.219Z,2.47
2023-01-28T07:08:46.990Z,2.30
2023-01-28T07:13:51.023Z,1.98
2023-01-28T07:18:52.508Z,1.60
2023-01-28T07:23:54.054Z,1.38
2023-01-28T07:28:55.585Z,3.70
2023-01-28T07:33:57.649Z,2.28
2023-01-28T07:38:59.092Z,3.10
2023-01-28T07:44:00.677Z,2.55
2023-01-28T07:49:02.321Z,1.80
2023-01-28T07:54:03.965Z,2.47
2023-01-28T07:59:05.419Z,1.13
2023-01-28T08:04:07.328Z,2.30
2023-01-28T08:09:10.150Z,1.75
2023-01-28T08:14:11.728Z,2.95
2023-01-28T08:19:13.055Z,3.40
2023-01-28T08:24:14.392Z,3.38
2023-01-28T08:29:15.897Z,1.55
2023-01-28T08:34:17.214Z,1.50
2023-01-28T08:39:18.677Z,4.53
2023-01-28T08:44:19.999Z,1.48
2023-01-28T08:49:22.207Z,1.55
2023-01-28T08:54:23.556Z,1.98
2023-01-28T08:59:24.944Z,4.40
2023-01-28T09:04:26.294Z,3.03
2023-01-28T09:09:27.626Z,2.10
2023-01-28T09:14:28.939Z,2.40
2023-01-28T09:19:30.355Z,4.60
2023-01-28T09:24:31.800Z,1.23
2023-01-28T09:29:37.261Z,3.05
2023-01-28T09:34:39.080Z,1.48
2023-01-28T09:39:40.486Z,1.33
2023-01-28T09:45:20.448Z,0.82
2023-01-28T09:50:38.453Z,1.52
2023-01-28T09:55:45.947Z,1.00
2023-01-28T10:00:55.403Z,2.00
2023-01-28T10:06:20.341Z,3.80
2023-01-28T10:11:37.637Z,1.10
2023-01-28T10:16:46.481Z,2.47
2023-01-28T10:22:00.184Z,1.70
2023-01-28T10:27:03.915Z,3.05
2023-01-28T10:32:22.469Z,1.58
2023-01-28T10:37:23.801Z,2.13
2023-01-28T10:42:35.894Z,1.50
2023-01-28T10:48:07.307Z,2.30
2023-01-28T10:53:08.629Z,3.58
2023-01-28T10:58:20.345Z,1.35
2023-01-28T11:03:27.163Z,3.70
2023-01-28T11:08:30.145Z,1.60
2023-01-28T11:13:31.457Z,2.67
2023-01-28T11:18:39.560Z,1.25
2023-01-28T11:23:59.686Z,2.67
2023-01-28T11:29:01.441Z,1.05
2023-01-28T11:34:05.560Z,2.45
2023-01-28T11:39:21.635Z,4.68
2023-01-28T11:44:25.394Z,3.35
2023-01-28T11:49:45.471Z,2.55
2023-01-28T11:55:11.259Z,1.15
2023-01-28T12:00:37.894Z,3.00
2023-01-28T12:05:46.521Z,1.85
2023-01-28T12:11:00.102Z,1.27
2023-01-28T12:16:30.890Z,1.25
2023-01-28T12:22:13.508Z,2.03
2023-01-28T12:27:33.023Z,2.17
2023-01-28T12:33:01.884Z,3.80
2023-01-28T12:38:15.575Z,3.03
2023-01-28T12:43:54.581Z,1.40
2023-01-28T12:49:05.226Z,3.35
2023-01-28T12:54:18.026Z,3.97
2023-01-28T12:59:33.957Z,5.00
2023-01-28T13:05:00.360Z,4.28
2023-01-28T13:10:20.692Z,3.00
2023-01-28T13:15:22.725Z,3.30
2023-01-28T13:20:35.233Z,2.22
2023-01-28T13:25:48.919Z,1.25
2023-01-28T13:30:50.402Z,2.03
2023-01-28T13:35:55.327Z,0.82
2023-01-28T13:41:06.287Z,2.92
2023-01-28T13:46:28.093Z,1.38
2023-01-28T13:51:33.485Z,1.13
2023-01-28T13:56:49.571Z,3.00
2023-01-28T14:02:28.229Z,4.65
2023-01-28T14:08:07.102Z,2.28
2023-01-28T14:13:36.357Z,1.70
2023-01-28T14:18:42.894Z,3.42
2023-01-28T14:23:50.272Z,1.73
2023-01-28T14:29:05.444Z,0.60
2023-01-28T14:34:30.913Z,3.15
2023-01-28T14:39:41.599Z,2.15
2023-01-28T14:44:44.845Z,6.45
2023-01-28T14:50:07.757Z,2.95
2023-01-28T14:55:22.536Z,2.30
2023-01-28T15:00:30.135Z,2.25
2023-01-28T15:05:31.920Z,0.60
2023-01-28T15:10:38.023Z,0.77
2023-01-28T15:15:40.864Z,2.67
2023-01-28T15:20:47.147Z,2.25
2023-01-28T15:25:48.587Z,1.70
2023-01-28T15:30:49.929Z,2.10
2023-01-28T15:35:56.417Z,6.90
2023-01-28T15:41:00.119Z,1.80
2023-01-28T15:46:01.654Z,1.95
2023-01-28T15:51:06.439Z,4.82
2023-01-28T15:56:25.749Z,2.10
2023-01-28T16:01:27.061Z,1.02
2023-01-28T16:06:33.286Z,3.30
2023-01-28T16:11:44.579Z,1.95
2023-01-28T16:16:47.835Z,1.88
2023-01-28T16:21:49.262Z,3.83
2023-01-28T16:27:05.576Z,4.47
2023-01-28T16:32:27.395Z,5.40
2023-01-28T16:37:29.188Z,3.97
2023-01-28T16:42:32.119Z,3.22
2023-01-28T16:47:33.483Z,5.60
2023-01-28T16:52:34.868Z,3.47
2023-01-28T16:57:37.006Z,6.28
2023-01-28T17:02:38.316Z,7.10
2023-01-28T17:07:39.700Z,10.52
2023-01-28T17:12:41.067Z,8.45
2023-01-28T17:17:42.629Z,6.22
2023-01-28T17:22:44.340Z,12.73
2023-01-28T17:27:48.891Z,7.80
2023-01-28T17:32:50.264Z,6.13
2023-01-28T17:37:55.178Z,8.48
2023-01-28T17:42:56.534Z,7.32
2023-01-28T17:47:57.930Z,8.82
2023-01-28T17:52:59.426Z,9.65
2023-01-28T17:58:00.763Z,6.75
2023-01-28T18:03:02.180Z,5.93
2023-01-28T18:08:04.471Z,10.80
2023-01-28T18:13:05.845Z,10.18
2023-01-28T18:18:07.499Z,12.18
2023-01-28T18:23:08.823Z,9.50
2023-01-28T18:28:10.133Z,12.38
2023-01-28T18:33:11.488Z,10.07
2023-01-28T18:38:13.870Z,9.57
2023-01-28T18:43:15.232Z,11.45
2023-01-28T18:48:17.724Z,8.38
2023-01-28T18:53:19.944Z,6.53
2023-01-28T18:58:21.396Z,8.52
2023-01-28T19:03:22.865Z,7.72
2023-01-28T19:08:24.171Z,9.27
2023-01-28T19:13:25.584Z,9.35
2023-01-28T19:18:27.098Z,7.80
2023-01-28T19:23:32.988Z,7.00
2023-01-28T19:28:39.332Z,5.43
2023-01-28T19:33:41.233Z,8.30
2023-01-28T19:38:42.858Z,14.23
2023-01-28T19:43:44.451Z,6.97
2023-01-28T19:48:46.117Z,5.72
2023-01-28T19:53:50.576Z,5.38
2023-01-28T19:58:53.687Z,10.77
2023-01-28T20:03:58.573Z,5.70
2023-01-28T20:09:08.941Z,6.88
2023-01-28T20:14:11.534Z,5.80
2023-01-28T20:19:15.616Z,9.38
2023-01-28T20:24:16.997Z,6.45
2023-01-28T20:29:19.812Z,7.85
2023-01-28T20:34:21.361Z,5.88
2023-01-28T20:39:22.697Z,6.70
2023-01-28T20:44:24.124Z,9.63
2023-01-28T20:49:27.918Z,6.20
2023-01-28T20:54:29.726Z,6.88
2023-01-28T20:59:32.208Z,5.68
2023-01-28T21:04:33.790Z,8.18
2023-01-28T21:09:35.121Z,8.00
2023-01-28T21:14:36.500Z,7.43
2023-01-28T21:19:37.888Z,4.05
2023-01-28T21:24:40.809Z,8.05
2023-01-28T21:29:42.526Z,10.73
2023-01-28T21:34:44.043Z,5.57
2023-01-28T21:39:45.389Z,7.68
2023-01-28T21:44:47.794Z,5.45
2023-01-28T21:49:49.155Z,7.97
2023-01-28T21:54:50.460Z,8.95
2023-01-28T21:59:51.764Z,6.65
2023-01-28T22:04:53.059Z,5.43
2023-01-28T22:09:54.386Z,7.72
2023-01-28T22:14:56.341Z,8.55
2023-01-28T22:19:57.703Z,6.10
2023-01-28T22:24:59.796Z,6.25
2023-01-28T22:30:01.134Z,9.32
2023-01-28T22:35:04.619Z,7.72
2023-01-28T22:40:06.457Z,6.70
2023-01-28T22:45:08.472Z,7.35
2023-01-28T22:50:10.584Z,6.63
2023-01-28T22:55:11.902Z,3.45
2023-01-28T23:00:15.574Z,5.43
2023-01-28T23:05:17.118Z,5.78
2023-01-28T23:10:18.773Z,4.47
2023-01-28T23:15:41.343Z,4.72
2023-01-28T23:21:01.569Z,4.47
2023-01-28T23:26:03.159Z,5.63
2023-01-28T23:31:04.820Z,5.78
2023-01-28T23:36:06.246Z,4.38
2023-01-28T23:41:08.583Z,7.43
2023-01-28T23:46:10.285Z,4.95
2023-01-28T23:51:11.727Z,6.45
2023-01-28T23:56:13.023Z,4.50
